sensor_id;sensor_type;location;lat;lon;timestamp;temperature;humidity
25732;DHT22;13585;50.864;4.406;2022-07-29T00:00:43;26.70;44.40
25732;DHT22;13585;50.864;4.406;2022-07-29T00:03:13;26.70;44.40
25732;DHT22;13585;50.864;4.406;2022-07-29T00:05:39;26.70;44.40
25732;DHT22;13585;50.864;4.406;2022-07-29T00:08:05;26.60;44.30
25732;DHT22;13585;50.864;4.406;2022-07-29T00:10:31;26.70;44.40
25732;DHT22;13585;50.864;4.406;2022-07-29T00:12:57;26.60;44.30
25732;DHT22;13585;50.864;4.406;2022-07-29T00:15:23;26.60;44.30
25732;DHT22;13585;50.864;4.406;2022-07-29T00:17:48;26.60;44.30
25732;DHT22;13585;50.864;4.406;2022-07-29T00:20:14;26.60;44.20
25732;DHT22;13585;50.864;4.406;2022-07-29T00:22:40;26.60;44.30
25732;DHT22;13585;50.864;4.406;2022-07-29T00:25:06;26.60;44.20
25732;DHT22;13585;50.864;4.406;2022-07-29T00:27:33;26.60;44.20
25732;DHT22;13585;50.864;4.406;2022-07-29T00:29:59;26.50;44.10
25732;DHT22;13585;50.864;4.406;2022-07-29T00:32:25;26.60;44.80
25732;DHT22;13585;50.864;4.406;2022-07-29T00:34:51;26.60;44.10
25732;DHT22;13585;50.864;4.406;2022-07-29T00:37:35;26.50;44.10
25732;DHT22;13585;50.864;4.406;2022-07-29T00:40:01;26.50;44.10
25732;DHT22;13585;50.864;4.406;2022-07-29T00:42:26;26.50;44.10
25732;DHT22;13585;50.864;4.406;2022-07-29T00:44:52;26.50;44.10
25732;DHT22;13585;50.864;4.406;2022-07-29T00:47:18;26.50;44.20
25732;DHT22;13585;50.864;4.406;2022-07-29T00:49:44;26.50;44.10
25732;DHT22;13585;50.864;4.406;2022-07-29T00:52:11;26.50;44.20
25732;DHT22;13585;50.864;4.406;2022-07-29T00:54:38;26.50;44.10
25732;DHT22;13585;50.864;4.406;2022-07-29T00:57:06;26.50;44.10
25732;DHT22;13585;50.864;4.406;2022-07-29T00:59:32;26.50;44.10
25732;DHT22;13585;50.864;4.406;2022-07-29T01:01:58;26.50;44.10
25732;DHT22;13585;50.864;4.406;2022-07-29T01:04:24;26.50;44.10
25732;DHT22;13585;50.864;4.406;2022-07-29T01:06:51;26.50;44.10
25732;DHT22;13585;50.864;4.406;2022-07-29T01:09:18;26.50;44.10
25732;DHT22;13585;50.864;4.406;2022-07-29T01:11:45;26.50;44.10
25732;DHT22;13585;50.864;4.406;2022-07-29T01:14:14;26.50;44.10
25732;DHT22;13585;50.864;4.406;2022-07-29T01:17:00;26.50;44.10
25732;DHT22;13585;50.864;4.406;2022-07-29T01:20:06;26.50;44.10
25732;DHT22;13585;50.864;4.406;2022-07-29T01:25:32;26.50;44.10
25732;DHT22;13585;50.864;4.406;2022-07-29T01:31:07;26.40;44.10
25732;DHT22;13585;50.864;4.406;2022-07-29T01:33:42;26.50;44.00
25732;DHT22;13585;50.864;4.406;2022-07-29T01:36:43;26.50;44.10
25732;DHT22;13585;50.864;4.406;2022-07-29T01:39:14;26.40;44.10
25732;DHT22;13585;50.864;4.406;2022-07-29T01:41:56;26.50;44.10
25732;DHT22;13585;50.864;4.406;2022-07-29T01:44:35;26.40;44.10
25732;DHT22;13585;50.864;4.406;2022-07-29T01:47:10;26.40;44.00
25732;DHT22;13585;50.864;4.406;2022-07-29T01:49:42;26.40;44.00
25732;DHT22;13585;50.864;4.406;2022-07-29T01:52:18;26.40;44.00
25732;DHT22;13585;50.864;4.406;2022-07-29T01:54:51;26.40;44.10
25732;DHT22;13585;50.864;4.406;2022-07-29T01:57:19;26.40;44.10
25732;DHT22;13585;50.864;4.406;2022-07-29T01:59:47;26.40;44.10
25732;DHT22;13585;50.864;4.406;2022-07-29T02:02:15;26.40;44.10
25732;DHT22;13585;50.864;4.406;2022-07-29T02:04:42;26.40;44.70
25732;DHT22;13585;50.864;4.406;2022-07-29T02:07:14;26.40;44.00
25732;DHT22;13585;50.864;4.406;2022-07-29T02:09:41;26.40;44.10
25732;DHT22;13585;50.864;4.406;2022-07-29T02:12:08;26.40;44.10
25732;DHT22;13585;50.864;4.406;2022-07-29T02:14:39;26.40;44.10
25732;DHT22;13585;50.864;4.406;2022-07-29T02:17:06;26.40;44.10
25732;DHT22;13585;50.864;4.406;2022-07-29T02:19:32;26.40;44.10
25732;DHT22;13585;50.864;4.406;2022-07-29T02:21:59;26.40;44.10
25732;DHT22;13585;50.864;4.406;2022-07-29T02:24:26;26.40;44.10
25732;DHT22;13585;50.864;4.406;2022-07-29T02:26:54;26.40;44.10
25732;DHT22;13585;50.864;4.406;2022-07-29T02:29:23;26.40;44.10
25732;DHT22;13585;50.864;4.406;2022-07-29T02:31:51;26.30;44.00
25732;DHT22;13585;50.864;4.406;2022-07-29T02:34:19;26.40;44.10
25732;DHT22;13585;50.864;4.406;2022-07-29T02:36:46;26.40;44.10
25732;DHT22;13585;50.864;4.406;2022-07-29T02:39:14;26.40;44.10
25732;DHT22;13585;50.864;4.406;2022-07-29T02:41:42;26.40;44.10
25732;DHT22;13585;50.864;4.406;2022-07-29T02:44:11;26.40;44.10
25732;DHT22;13585;50.864;4.406;2022-07-29T02:46:42;26.30;44.10
25732;DHT22;13585;50.864;4.406;2022-07-29T02:49:25;26.30;44.10
25732;DHT22;13585;50.864;4.406;2022-07-29T02:52:00;26.30;44.10
25732;DHT22;13585;50.864;4.406;2022-07-29T02:57:20;26.30;44.00
25732;DHT22;13585;50.864;4.406;2022-07-29T02:59:50;26.30;44.10
25732;DHT22;13585;50.864;4.406;2022-07-29T03:02:17;26.30;44.00
25732;DHT22;13585;50.864;4.406;2022-07-29T03:04:44;26.40;44.10
25732;DHT22;13585;50.864;4.406;2022-07-29T03:07:13;26.30;44.00
25732;DHT22;13585;50.864;4.406;2022-07-29T03:09:41;26.40;44.10
25732;DHT22;13585;50.864;4.406;2022-07-29T03:12:08;26.30;44.10
25732;DHT22;13585;50.864;4.406;2022-07-29T03:14:34;26.30;44.10
25732;DHT22;13585;50.864;4.406;2022-07-29T03:17:00;26.30;44.10
25732;DHT22;13585;50.864;4.406;2022-07-29T03:19:26;26.40;44.20
25732;DHT22;13585;50.864;4.406;2022-07-29T03:21:56;26.30;44.10
25732;DHT22;13585;50.864;4.406;2022-07-29T03:24:33;26.30;44.10
25732;DHT22;13585;50.864;4.406;2022-07-29T03:27:00;26.20;44.10
25732;DHT22;13585;50.864;4.406;2022-07-29T03:29:26;26.30;44.10
25732;DHT22;13585;50.864;4.406;2022-07-29T03:31:52;26.30;44.10
25732;DHT22;13585;50.864;4.406;2022-07-29T03:34:18;26.30;44.10
25732;DHT22;13585;50.864;4.406;2022-07-29T03:36:44;26.20;44.10
25732;DHT22;13585;50.864;4.406;2022-07-29T03:39:12;26.20;44.20
25732;DHT22;13585;50.864;4.406;2022-07-29T03:41:40;26.20;44.10
25732;DHT22;13585;50.864;4.406;2022-07-29T03:44:08;26.40;44.20
25732;DHT22;13585;50.864;4.406;2022-07-29T03:46:35;26.20;44.10
25732;DHT22;13585;50.864;4.406;2022-07-29T03:49:03;26.20;44.20
25732;DHT22;13585;50.864;4.406;2022-07-29T03:51:30;26.20;44.20
25732;DHT22;13585;50.864;4.406;2022-07-29T03:53:56;26.20;44.20
25732;DHT22;13585;50.864;4.406;2022-07-29T03:56:23;26.20;44.30
25732;DHT22;13585;50.864;4.406;2022-07-29T03:58:52;26.20;44.20
25732;DHT22;13585;50.864;4.406;2022-07-29T04:01:19;26.20;44.30
25732;DHT22;13585;50.864;4.406;2022-07-29T04:03:46;26.20;44.30
25732;DHT22;13585;50.864;4.406;2022-07-29T04:06:12;26.20;44.40
25732;DHT22;13585;50.864;4.406;2022-07-29T04:08:38;26.20;45.00
25732;DHT22;13585;50.864;4.406;2022-07-29T04:11:04;26.20;44.30
25732;DHT22;13585;50.864;4.406;2022-07-29T04:13:31;26.20;44.30
25732;DHT22;13585;50.864;4.406;2022-07-29T04:15:57;26.20;44.30
25732;DHT22;13585;50.864;4.406;2022-07-29T04:18:23;26.20;44.40
25732;DHT22;13585;50.864;4.406;2022-07-29T04:20:49;26.20;44.40
25732;DHT22;13585;50.864;4.406;2022-07-29T04:23:15;26.20;45.10
25732;DHT22;13585;50.864;4.406;2022-07-29T04:25:41;26.20;44.40
25732;DHT22;13585;50.864;4.406;2022-07-29T04:28:08;26.20;44.50
25732;DHT22;13585;50.864;4.406;2022-07-29T04:30:35;26.20;44.50
25732;DHT22;13585;50.864;4.406;2022-07-29T04:33:02;26.20;44.50
25732;DHT22;13585;50.864;4.406;2022-07-29T04:35:33;26.20;44.50
25732;DHT22;13585;50.864;4.406;2022-07-29T04:38:00;26.10;44.50
25732;DHT22;13585;50.864;4.406;2022-07-29T04:40:26;26.20;44.60
25732;DHT22;13585;50.864;4.406;2022-07-29T04:42:51;26.20;44.70
25732;DHT22;13585;50.864;4.406;2022-07-29T04:45:17;26.20;44.70
25732;DHT22;13585;50.864;4.406;2022-07-29T04:47:43;26.20;44.80
25732;DHT22;13585;50.864;4.406;2022-07-29T04:50:09;26.10;44.70
25732;DHT22;13585;50.864;4.406;2022-07-29T04:52:35;26.10;44.70
25732;DHT22;13585;50.864;4.406;2022-07-29T04:55:02;26.20;44.80
25732;DHT22;13585;50.864;4.406;2022-07-29T04:57:28;26.10;44.80
25732;DHT22;13585;50.864;4.406;2022-07-29T04:59:54;26.10;44.80
25732;DHT22;13585;50.864;4.406;2022-07-29T05:02:19;26.10;44.80
25732;DHT22;13585;50.864;4.406;2022-07-29T05:04:45;26.10;44.80
25732;DHT22;13585;50.864;4.406;2022-07-29T05:07:11;26.20;44.90
25732;DHT22;13585;50.864;4.406;2022-07-29T05:09:36;26.10;44.80
25732;DHT22;13585;50.864;4.406;2022-07-29T05:12:02;26.20;45.00
25732;DHT22;13585;50.864;4.406;2022-07-29T05:14:28;26.20;45.00
25732;DHT22;13585;50.864;4.406;2022-07-29T05:16:53;26.20;44.90
25732;DHT22;13585;50.864;4.406;2022-07-29T05:19:22;26.20;44.90
25732;DHT22;13585;50.864;4.406;2022-07-29T05:21:48;26.20;44.90
25732;DHT22;13585;50.864;4.406;2022-07-29T05:24:13;26.20;45.00
25732;DHT22;13585;50.864;4.406;2022-07-29T05:26:39;26.20;45.00
25732;DHT22;13585;50.864;4.406;2022-07-29T05:29:05;26.20;45.00
25732;DHT22;13585;50.864;4.406;2022-07-29T05:31:31;26.20;44.90
25732;DHT22;13585;50.864;4.406;2022-07-29T05:33:57;26.20;45.00
25732;DHT22;13585;50.864;4.406;2022-07-29T05:36:22;26.20;45.00
25732;DHT22;13585;50.864;4.406;2022-07-29T05:38:48;26.20;45.00
25732;DHT22;13585;50.864;4.406;2022-07-29T05:41:14;26.20;44.90
25732;DHT22;13585;50.864;4.406;2022-07-29T05:43:40;26.20;45.00
25732;DHT22;13585;50.864;4.406;2022-07-29T05:46:05;26.20;45.00
25732;DHT22;13585;50.864;4.406;2022-07-29T05:48:31;26.20;45.00
25732;DHT22;13585;50.864;4.406;2022-07-29T05:50:57;26.20;45.00
25732;DHT22;13585;50.864;4.406;2022-07-29T05:53:23;26.20;45.00
25732;DHT22;13585;50.864;4.406;2022-07-29T05:55:49;26.20;45.00
25732;DHT22;13585;50.864;4.406;2022-07-29T05:58:15;26.30;45.10
25732;DHT22;13585;50.864;4.406;2022-07-29T06:00:41;26.20;45.00
25732;DHT22;13585;50.864;4.406;2022-07-29T06:03:12;26.20;44.90
25732;DHT22;13585;50.864;4.406;2022-07-29T06:05:41;26.30;44.80
25732;DHT22;13585;50.864;4.406;2022-07-29T06:08:06;26.30;44.80
25732;DHT22;13585;50.864;4.406;2022-07-29T06:10:34;26.30;44.80
25732;DHT22;13585;50.864;4.406;2022-07-29T06:13:00;26.30;44.70
25732;DHT22;13585;50.864;4.406;2022-07-29T06:15:26;26.30;44.70
25732;DHT22;13585;50.864;4.406;2022-07-29T06:17:52;26.30;44.70
25732;DHT22;13585;50.864;4.406;2022-07-29T06:20:18;26.40;44.70
25732;DHT22;13585;50.864;4.406;2022-07-29T06:22:43;26.40;44.70
25732;DHT22;13585;50.864;4.406;2022-07-29T06:25:09;26.40;44.70
25732;DHT22;13585;50.864;4.406;2022-07-29T06:27:35;26.40;44.70
25732;DHT22;13585;50.864;4.406;2022-07-29T06:30:01;26.50;44.70
25732;DHT22;13585;50.864;4.406;2022-07-29T06:32:27;26.40;44.60
25732;DHT22;13585;50.864;4.406;2022-07-29T06:34:53;26.50;44.70
25732;DHT22;13585;50.864;4.406;2022-07-29T06:37:18;26.50;44.70
25732;DHT22;13585;50.864;4.406;2022-07-29T06:39:44;26.60;44.70
25732;DHT22;13585;50.864;4.406;2022-07-29T06:42:10;26.50;44.60
25732;DHT22;13585;50.864;4.406;2022-07-29T06:44:35;26.50;44.60
25732;DHT22;13585;50.864;4.406;2022-07-29T06:47:01;26.50;44.60
25732;DHT22;13585;50.864;4.406;2022-07-29T06:49:27;26.60;44.70
25732;DHT22;13585;50.864;4.406;2022-07-29T06:51:53;26.60;44.70
25732;DHT22;13585;50.864;4.406;2022-07-29T06:54:19;26.60;44.70
25732;DHT22;13585;50.864;4.406;2022-07-29T06:56:45;26.60;44.70
25732;DHT22;13585;50.864;4.406;2022-07-29T06:59:12;26.60;44.70
25732;DHT22;13585;50.864;4.406;2022-07-29T07:01:40;26.60;44.70
25732;DHT22;13585;50.864;4.406;2022-07-29T07:04:07;26.60;44.70
25732;DHT22;13585;50.864;4.406;2022-07-29T07:06:34;26.60;44.70
25732;DHT22;13585;50.864;4.406;2022-07-29T07:09:00;26.60;44.70
25732;DHT22;13585;50.864;4.406;2022-07-29T07:11:26;26.60;44.70
25732;DHT22;13585;50.864;4.406;2022-07-29T07:13:51;26.60;44.80
25732;DHT22;13585;50.864;4.406;2022-07-29T07:16:17;26.70;44.90
25732;DHT22;13585;50.864;4.406;2022-07-29T07:18:43;26.70;45.00
25732;DHT22;13585;50.864;4.406;2022-07-29T07:21:10;26.70;45.10
25732;DHT22;13585;50.864;4.406;2022-07-29T07:23:36;26.60;45.30
25732;DHT22;13585;50.864;4.406;2022-07-29T07:26:02;26.60;45.40
25732;DHT22;13585;50.864;4.406;2022-07-29T07:28:28;26.60;45.60
25732;DHT22;13585;50.864;4.406;2022-07-29T07:30:54;26.60;45.70
25732;DHT22;13585;50.864;4.406;2022-07-29T07:33:23;26.60;45.80
25732;DHT22;13585;50.864;4.406;2022-07-29T07:35:50;26.60;46.00
25732;DHT22;13585;50.864;4.406;2022-07-29T07:38:15;26.60;46.10
25732;DHT22;13585;50.864;4.406;2022-07-29T07:40:41;26.60;46.10
25732;DHT22;13585;50.864;4.406;2022-07-29T07:43:07;26.60;46.10
25732;DHT22;13585;50.864;4.406;2022-07-29T07:45:32;26.60;46.20
25732;DHT22;13585;50.864;4.406;2022-07-29T07:47:58;26.60;46.10
25732;DHT22;13585;50.864;4.406;2022-07-29T07:50:24;26.70;46.80
25732;DHT22;13585;50.864;4.406;2022-07-29T07:52:55;26.70;46.10
25732;DHT22;13585;50.864;4.406;2022-07-29T07:55:23;26.60;46.00
25732;DHT22;13585;50.864;4.406;2022-07-29T07:57:49;26.70;46.00
25732;DHT22;13585;50.864;4.406;2022-07-29T08:00:16;26.70;45.90
25732;DHT22;13585;50.864;4.406;2022-07-29T08:02:42;26.70;45.90
25732;DHT22;13585;50.864;4.406;2022-07-29T08:05:09;26.70;45.80
25732;DHT22;13585;50.864;4.406;2022-07-29T08:07:36;26.70;45.80
25732;DHT22;13585;50.864;4.406;2022-07-29T08:10:02;26.70;45.80
25732;DHT22;13585;50.864;4.406;2022-07-29T08:12:29;26.70;45.80
25732;DHT22;13585;50.864;4.406;2022-07-29T08:14:55;26.70;45.80
25732;DHT22;13585;50.864;4.406;2022-07-29T08:17:21;26.70;45.70
25732;DHT22;13585;50.864;4.406;2022-07-29T08:19:46;26.80;45.80
25732;DHT22;13585;50.864;4.406;2022-07-29T08:22:14;26.80;45.80
25732;DHT22;13585;50.864;4.406;2022-07-29T08:24:39;26.80;45.70
25732;DHT22;13585;50.864;4.406;2022-07-29T08:27:13;26.80;45.70
25732;DHT22;13585;50.864;4.406;2022-07-29T08:29:41;26.80;45.70
25732;DHT22;13585;50.864;4.406;2022-07-29T08:32:07;26.80;45.80
25732;DHT22;13585;50.864;4.406;2022-07-29T08:34:33;26.80;45.80
25732;DHT22;13585;50.864;4.406;2022-07-29T08:36:59;26.80;45.70
25732;DHT22;13585;50.864;4.406;2022-07-29T08:39:24;26.80;45.70
25732;DHT22;13585;50.864;4.406;2022-07-29T08:41:51;26.80;45.70
25732;DHT22;13585;50.864;4.406;2022-07-29T08:44:18;26.80;45.70
25732;DHT22;13585;50.864;4.406;2022-07-29T08:46:44;26.80;45.70
25732;DHT22;13585;50.864;4.406;2022-07-29T08:49:10;26.80;45.70
25732;DHT22;13585;50.864;4.406;2022-07-29T08:51:36;26.80;45.80
25732;DHT22;13585;50.864;4.406;2022-07-29T08:54:04;26.80;45.70
25732;DHT22;13585;50.864;4.406;2022-07-29T08:56:30;26.80;45.70
25732;DHT22;13585;50.864;4.406;2022-07-29T08:58:58;26.80;45.80
25732;DHT22;13585;50.864;4.406;2022-07-29T09:01:32;26.80;45.80
25732;DHT22;13585;50.864;4.406;2022-07-29T09:04:04;26.90;45.90
25732;DHT22;13585;50.864;4.406;2022-07-29T09:06:32;26.80;45.80
25732;DHT22;13585;50.864;4.406;2022-07-29T09:09:00;26.90;45.90
25732;DHT22;13585;50.864;4.406;2022-07-29T09:11:26;26.80;45.90
25732;DHT22;13585;50.864;4.406;2022-07-29T09:13:53;26.80;45.90
25732;DHT22;13585;50.864;4.406;2022-07-29T09:16:18;26.80;45.90
25732;DHT22;13585;50.864;4.406;2022-07-29T09:18:46;26.90;46.00
25732;DHT22;13585;50.864;4.406;2022-07-29T09:21:14;26.80;46.00
25732;DHT22;13585;50.864;4.406;2022-07-29T09:24:03;26.90;46.00
25732;DHT22;13585;50.864;4.406;2022-07-29T09:26:31;26.80;45.90
25732;DHT22;13585;50.864;4.406;2022-07-29T09:28:57;26.90;46.00
25732;DHT22;13585;50.864;4.406;2022-07-29T09:31:43;26.90;46.00
25732;DHT22;13585;50.864;4.406;2022-07-29T09:34:14;26.90;46.60
25732;DHT22;13585;50.864;4.406;2022-07-29T09:36:45;26.90;46.70
25732;DHT22;13585;50.864;4.406;2022-07-29T09:39:12;26.90;46.10
25732;DHT22;13585;50.864;4.406;2022-07-29T09:41:51;26.90;46.10
25732;DHT22;13585;50.864;4.406;2022-07-29T09:44:18;26.90;46.20
25732;DHT22;13585;50.864;4.406;2022-07-29T09:47:04;26.90;46.10
25732;DHT22;13585;50.864;4.406;2022-07-29T09:49:34;26.90;46.30
25732;DHT22;13585;50.864;4.406;2022-07-29T09:52:08;26.90;46.20
25732;DHT22;13585;50.864;4.406;2022-07-29T09:54:34;26.90;46.30
25732;DHT22;13585;50.864;4.406;2022-07-29T09:57:09;26.90;46.30
25732;DHT22;13585;50.864;4.406;2022-07-29T09:59:38;26.90;46.40
25732;DHT22;13585;50.864;4.406;2022-07-29T10:02:13;26.90;46.40
25732;DHT22;13585;50.864;4.406;2022-07-29T10:04:41;26.90;46.50
25732;DHT22;13585;50.864;4.406;2022-07-29T10:07:07;27.00;46.60
25732;DHT22;13585;50.864;4.406;2022-07-29T10:09:33;26.90;46.50
25732;DHT22;13585;50.864;4.406;2022-07-29T10:12:11;26.90;46.50
25732;DHT22;13585;50.864;4.406;2022-07-29T10:14:39;26.90;46.70
25732;DHT22;13585;50.864;4.406;2022-07-29T10:17:06;27.00;46.70
25732;DHT22;13585;50.864;4.406;2022-07-29T10:19:34;27.00;46.80
25732;DHT22;13585;50.864;4.406;2022-07-29T10:22:01;27.00;46.80
25732;DHT22;13585;50.864;4.406;2022-07-29T10:24:29;27.00;47.00
25732;DHT22;13585;50.864;4.406;2022-07-29T10:26:57;27.00;47.00
25732;DHT22;13585;50.864;4.406;2022-07-29T10:29:23;27.00;47.70
25732;DHT22;13585;50.864;4.406;2022-07-29T10:32:09;27.00;47.10
25732;DHT22;13585;50.864;4.406;2022-07-29T10:41:04;27.00;47.40
25732;DHT22;13585;50.864;4.406;2022-07-29T10:43:23;27.00;47.60
25732;DHT22;13585;50.864;4.406;2022-07-29T10:45:57;27.10;47.70
25732;DHT22;13585;50.864;4.406;2022-07-29T10:48:24;27.00;47.80
25732;DHT22;13585;50.864;4.406;2022-07-29T10:53:19;27.00;48.00
25732;DHT22;13585;50.864;4.406;2022-07-29T10:55:45;27.10;48.20
25732;DHT22;13585;50.864;4.406;2022-07-29T11:00:39;27.10;48.30
25732;DHT22;13585;50.864;4.406;2022-07-29T11:03:05;27.10;48.40
25732;DHT22;13585;50.864;4.406;2022-07-29T11:05:51;27.10;48.40
25732;DHT22;13585;50.864;4.406;2022-07-29T11:08:19;27.10;48.50
25732;DHT22;13585;50.864;4.406;2022-07-29T11:10:50;27.10;48.50
25732;DHT22;13585;50.864;4.406;2022-07-29T11:16:14;27.10;48.70
25732;DHT22;13585;50.864;4.406;2022-07-29T11:19:41;27.20;48.70
25732;DHT22;13585;50.864;4.406;2022-07-29T11:21:47;27.10;48.90
25732;DHT22;13585;50.864;4.406;2022-07-29T11:24:29;27.20;49.20
25732;DHT22;13585;50.864;4.406;2022-07-29T11:29:40;27.20;49.80
25732;DHT22;13585;50.864;4.406;2022-07-29T11:32:14;27.20;49.80
25732;DHT22;13585;50.864;4.406;2022-07-29T11:34:41;27.20;49.90
25732;DHT22;13585;50.864;4.406;2022-07-29T11:39:34;27.20;50.10
25732;DHT22;13585;50.864;4.406;2022-07-29T11:44:58;27.20;50.20
25732;DHT22;13585;50.864;4.406;2022-07-29T11:47:28;27.20;50.10
25732;DHT22;13585;50.864;4.406;2022-07-29T11:49:55;27.20;50.00
25732;DHT22;13585;50.864;4.406;2022-07-29T11:52:22;27.20;49.90
25732;DHT22;13585;50.864;4.406;2022-07-29T11:54:49;27.20;49.80
25732;DHT22;13585;50.864;4.406;2022-07-29T11:57:19;27.20;49.80
25732;DHT22;13585;50.864;4.406;2022-07-29T11:59:46;27.20;49.70
25732;DHT22;13585;50.864;4.406;2022-07-29T12:02:14;27.20;49.60
25732;DHT22;13585;50.864;4.406;2022-07-29T12:04:56;27.30;49.70
25732;DHT22;13585;50.864;4.406;2022-07-29T12:07:31;27.30;49.70
25732;DHT22;13585;50.864;4.406;2022-07-29T12:09:57;27.20;49.50
25732;DHT22;13585;50.864;4.406;2022-07-29T12:12:23;27.30;49.50
25732;DHT22;13585;50.864;4.406;2022-07-29T12:14:49;27.30;49.40
25732;DHT22;13585;50.864;4.406;2022-07-29T12:17:45;27.30;49.40
25732;DHT22;13585;50.864;4.406;2022-07-29T12:20:11;27.30;49.40
25732;DHT22;13585;50.864;4.406;2022-07-29T12:22:40;27.30;49.20
25732;DHT22;13585;50.864;4.406;2022-07-29T12:25:13;27.30;49.20
25732;DHT22;13585;50.864;4.406;2022-07-29T12:27:41;27.30;49.30
25732;DHT22;13585;50.864;4.406;2022-07-29T12:30:15;27.30;49.20
25732;DHT22;13585;50.864;4.406;2022-07-29T12:32:44;27.30;49.20
25732;DHT22;13585;50.864;4.406;2022-07-29T12:35:15;27.30;49.20
25732;DHT22;13585;50.864;4.406;2022-07-29T12:37:42;27.30;49.20
25732;DHT22;13585;50.864;4.406;2022-07-29T12:40:11;27.40;49.20
25732;DHT22;13585;50.864;4.406;2022-07-29T12:42:37;27.30;49.10
25732;DHT22;13585;50.864;4.406;2022-07-29T12:45:03;27.30;49.10
25732;DHT22;13585;50.864;4.406;2022-07-29T12:47:29;27.40;49.20
25732;DHT22;13585;50.864;4.406;2022-07-29T12:50:14;27.40;49.20
25732;DHT22;13585;50.864;4.406;2022-07-29T12:52:44;27.30;49.10
25732;DHT22;13585;50.864;4.406;2022-07-29T12:55:11;27.40;49.10
25732;DHT22;13585;50.864;4.406;2022-07-29T12:57:50;27.40;49.10
25732;DHT22;13585;50.864;4.406;2022-07-29T13:00:22;27.30;49.10
25732;DHT22;13585;50.864;4.406;2022-07-29T13:02:55;27.30;49.00
25732;DHT22;13585;50.864;4.406;2022-07-29T13:05:22;27.30;49.00
25732;DHT22;13585;50.864;4.406;2022-07-29T13:07:47;27.40;49.00
25732;DHT22;13585;50.864;4.406;2022-07-29T13:10:19;27.30;48.90
25732;DHT22;13585;50.864;4.406;2022-07-29T13:13:08;27.40;49.00
25732;DHT22;13585;50.864;4.406;2022-07-29T13:15:38;27.40;49.00
25732;DHT22;13585;50.864;4.406;2022-07-29T13:18:06;27.40;48.90
25732;DHT22;13585;50.864;4.406;2022-07-29T13:20:51;27.40;48.90
25732;DHT22;13585;50.864;4.406;2022-07-29T13:23:16;27.40;48.90
25732;DHT22;13585;50.864;4.406;2022-07-29T13:25:43;27.40;48.90
25732;DHT22;13585;50.864;4.406;2022-07-29T13:28:08;27.40;48.80
25732;DHT22;13585;50.864;4.406;2022-07-29T13:30:34;27.40;48.80
25732;DHT22;13585;50.864;4.406;2022-07-29T13:33:00;27.40;48.80
25732;DHT22;13585;50.864;4.406;2022-07-29T13:35:26;27.40;48.90
25732;DHT22;13585;50.864;4.406;2022-07-29T13:37:55;27.40;48.80
25732;DHT22;13585;50.864;4.406;2022-07-29T13:40:21;27.40;48.80
25732;DHT22;13585;50.864;4.406;2022-07-29T13:42:47;27.40;48.90
25732;DHT22;13585;50.864;4.406;2022-07-29T13:45:14;27.40;48.90
25732;DHT22;13585;50.864;4.406;2022-07-29T13:47:46;27.40;48.90
25732;DHT22;13585;50.864;4.406;2022-07-29T13:50:11;27.40;49.00
25732;DHT22;13585;50.864;4.406;2022-07-29T13:52:47;27.40;49.00
25732;DHT22;13585;50.864;4.406;2022-07-29T13:55:22;27.40;49.10
25732;DHT22;13585;50.864;4.406;2022-07-29T13:57:56;27.50;49.10
25732;DHT22;13585;50.864;4.406;2022-07-29T14:00:22;27.50;49.20
25732;DHT22;13585;50.864;4.406;2022-07-29T14:02:49;27.50;49.20
25732;DHT22;13585;50.864;4.406;2022-07-29T14:05:15;27.50;49.20
25732;DHT22;13585;50.864;4.406;2022-07-29T14:07:41;27.50;49.20
25732;DHT22;13585;50.864;4.406;2022-07-29T14:10:08;27.60;49.20
25732;DHT22;13585;50.864;4.406;2022-07-29T14:12:34;27.60;49.20
25732;DHT22;13585;50.864;4.406;2022-07-29T14:14:59;27.60;49.20
25732;DHT22;13585;50.864;4.406;2022-07-29T14:17:25;27.60;49.20
25732;DHT22;13585;50.864;4.406;2022-07-29T14:19:51;27.60;49.30
25732;DHT22;13585;50.864;4.406;2022-07-29T14:22:17;27.60;49.30
25732;DHT22;13585;50.864;4.406;2022-07-29T14:24:44;27.60;49.30
25732;DHT22;13585;50.864;4.406;2022-07-29T14:27:11;27.60;49.30
25732;DHT22;13585;50.864;4.406;2022-07-29T14:29:36;27.60;49.20
25732;DHT22;13585;50.864;4.406;2022-07-29T14:32:08;27.60;49.20
25732;DHT22;13585;50.864;4.406;2022-07-29T14:34:57;27.60;49.20
25732;DHT22;13585;50.864;4.406;2022-07-29T14:37:23;27.60;49.20
25732;DHT22;13585;50.864;4.406;2022-07-29T14:39:49;27.60;49.10
25732;DHT22;13585;50.864;4.406;2022-07-29T14:42:18;27.60;49.10
25732;DHT22;13585;50.864;4.406;2022-07-29T14:44:44;27.70;49.10
25732;DHT22;13585;50.864;4.406;2022-07-29T14:47:09;27.60;49.10
25732;DHT22;13585;50.864;4.406;2022-07-29T14:49:35;27.70;49.20
25732;DHT22;13585;50.864;4.406;2022-07-29T14:52:12;27.60;49.10
25732;DHT22;13585;50.864;4.406;2022-07-29T14:54:38;27.60;49.00
25732;DHT22;13585;50.864;4.406;2022-07-29T14:57:17;27.60;49.10
25732;DHT22;13585;50.864;4.406;2022-07-29T14:59:54;27.60;49.10
25732;DHT22;13585;50.864;4.406;2022-07-29T15:02:19;27.70;49.10
25732;DHT22;13585;50.864;4.406;2022-07-29T15:04:45;27.70;49.10
25732;DHT22;13585;50.864;4.406;2022-07-29T15:07:13;27.60;49.10
25732;DHT22;13585;50.864;4.406;2022-07-29T15:09:39;27.70;49.10
25732;DHT22;13585;50.864;4.406;2022-07-29T15:12:05;27.60;49.00
25732;DHT22;13585;50.864;4.406;2022-07-29T15:14:31;27.70;49.00
25732;DHT22;13585;50.864;4.406;2022-07-29T15:16:57;27.70;49.00
25732;DHT22;13585;50.864;4.406;2022-07-29T15:19:22;27.70;49.00
25732;DHT22;13585;50.864;4.406;2022-07-29T15:21:48;27.70;49.10
25732;DHT22;13585;50.864;4.406;2022-07-29T15:24:18;27.70;49.20
25732;DHT22;13585;50.864;4.406;2022-07-29T15:26:44;27.70;49.40
25732;DHT22;13585;50.864;4.406;2022-07-29T15:29:09;27.70;49.50
25732;DHT22;13585;50.864;4.406;2022-07-29T15:31:35;27.70;49.50
25732;DHT22;13585;50.864;4.406;2022-07-29T15:34:01;27.70;49.60
25732;DHT22;13585;50.864;4.406;2022-07-29T15:36:30;27.70;49.50
25732;DHT22;13585;50.864;4.406;2022-07-29T15:38:56;27.70;49.50
25732;DHT22;13585;50.864;4.406;2022-07-29T15:41:22;27.70;49.40
25732;DHT22;13585;50.864;4.406;2022-07-29T15:43:48;27.70;49.20
25732;DHT22;13585;50.864;4.406;2022-07-29T15:46:16;27.70;49.00
25732;DHT22;13585;50.864;4.406;2022-07-29T15:49:01;27.70;48.90
25732;DHT22;13585;50.864;4.406;2022-07-29T15:51:27;27.70;48.70
25732;DHT22;13585;50.864;4.406;2022-07-29T15:53:53;27.80;48.70
25732;DHT22;13585;50.864;4.406;2022-07-29T15:56:19;27.70;48.50
25732;DHT22;13585;50.864;4.406;2022-07-29T15:58:45;27.70;48.40
25732;DHT22;13585;50.864;4.406;2022-07-29T16:01:11;27.70;48.30
25732;DHT22;13585;50.864;4.406;2022-07-29T16:03:37;27.80;48.20
25732;DHT22;13585;50.864;4.406;2022-07-29T16:06:03;27.70;48.00
25732;DHT22;13585;50.864;4.406;2022-07-29T16:08:29;27.70;47.70